sensor_id;sensor_type;location;lat;lon;timestamp;temperature;humidity
9973;DHT22;5027;53.560;10.062;2023-04-03T00:02:01;11.00;1.00
9973;DHT22;5027;53.560;10.062;2023-04-03T00:04:28;11.00;1.00
9973;DHT22;5027;53.560;10.062;2023-04-03T00:06:55;11.00;1.00
9973;DHT22;5027;53.560;10.062;2023-04-03T00:09:21;11.00;1.00
9973;DHT22;5027;53.560;10.062;2023-04-03T00:11:48;11.00;1.00
9973;DHT22;5027;53.560;10.062;2023-04-03T00:14:15;11.00;1.00
9973;DHT22;5027;53.560;10.062;2023-04-03T00:16:41;10.90;1.00
9973;DHT22;5027;53.560;10.062;2023-04-03T00:19:08;10.90;1.00
9973;DHT22;5027;53.560;10.062;2023-04-03T00:21:38;10.90;1.00
9973;DHT22;5027;53.560;10.062;2023-04-03T00:24:05;10.90;1.00
9973;DHT22;5027;53.560;10.062;2023-04-03T00:26:32;10.90;1.00
9973;DHT22;5027;53.560;10.062;2023-04-03T00:28:58;10.90;1.00
9973;DHT22;5027;53.560;10.062;2023-04-03T00:31:26;10.90;1.00
9973;DHT22;5027;53.560;10.062;2023-04-03T00:33:53;10.90;1.00
9973;DHT22;5027;53.560;10.062;2023-04-03T00:36:19;10.90;1.00
9973;DHT22;5027;53.560;10.062;2023-04-03T00:38:46;10.90;1.00
9973;DHT22;5027;53.560;10.062;2023-04-03T00:41:13;10.90;1.00
9973;DHT22;5027;53.560;10.062;2023-04-03T00:43:40;10.80;1.00
9973;DHT22;5027;53.560;10.062;2023-04-03T00:46:07;10.80;1.00
9973;DHT22;5027;53.560;10.062;2023-04-03T00:48:40;10.80;1.00
9973;DHT22;5027;53.560;10.062;2023-04-03T00:51:11;10.80;1.00
9973;DHT22;5027;53.560;10.062;2023-04-03T00:53:43;10.80;1.00
9973;DHT22;5027;53.560;10.062;2023-04-03T00:56:14;10.80;1.00
9973;DHT22;5027;53.560;10.062;2023-04-03T00:58:46;10.70;1.00
9973;DHT22;5027;53.560;10.062;2023-04-03T01:01:18;10.80;1.00
9973;DHT22;5027;53.560;10.062;2023-04-03T01:03:47;10.70;1.00
9973;DHT22;5027;53.560;10.062;2023-04-03T01:06:16;10.70;1.00
9973;DHT22;5027;53.560;10.062;2023-04-03T01:08:47;10.70;1.00
9973;DHT22;5027;53.560;10.062;2023-04-03T01:11:15;10.70;1.00
9973;DHT22;5027;53.560;10.062;2023-04-03T01:13:43;10.70;1.00
9973;DHT22;5027;53.560;10.062;2023-04-03T01:16:09;10.70;1.00
9973;DHT22;5027;53.560;10.062;2023-04-03T01:18:38;10.70;1.00
9973;DHT22;5027;53.560;10.062;2023-04-03T01:26:44;10.60;1.00
9973;DHT22;5027;53.560;10.062;2023-04-03T01:29:11;10.60;1.00
9973;DHT22;5027;53.560;10.062;2023-04-03T01:31:46;10.60;1.00
9973;DHT22;5027;53.560;10.062;2023-04-03T01:34:13;10.60;1.00
9973;DHT22;5027;53.560;10.062;2023-04-03T01:36:40;10.60;1.00
9973;DHT22;5027;53.560;10.062;2023-04-03T01:39:07;10.60;1.00
9973;DHT22;5027;53.560;10.062;2023-04-03T01:41:34;10.60;1.00
9973;DHT22;5027;53.560;10.062;2023-04-03T01:44:09;10.60;1.00
9973;DHT22;5027;53.560;10.062;2023-04-03T01:46:36;10.50;1.00
9973;DHT22;5027;53.560;10.062;2023-04-03T01:49:04;10.50;1.00
9973;DHT22;5027;53.560;10.062;2023-04-03T01:51:31;10.60;1.00
9973;DHT22;5027;53.560;10.062;2023-04-03T01:53:58;10.50;1.00
9973;DHT22;5027;53.560;10.062;2023-04-03T01:56:24;10.60;1.00
9973;DHT22;5027;53.560;10.062;2023-04-03T01:58:51;10.50;1.00
9973;DHT22;5027;53.560;10.062;2023-04-03T02:01:18;10.50;1.00
9973;DHT22;5027;53.560;10.062;2023-04-03T02:03:45;10.40;1.00
9973;DHT22;5027;53.560;10.062;2023-04-03T02:06:11;10.40;99.90
9973;DHT22;5027;53.560;10.062;2023-04-03T02:08:38;10.40;99.90
9973;DHT22;5027;53.560;10.062;2023-04-03T02:11:05;10.40;1.00
9973;DHT22;5027;53.560;10.062;2023-04-03T02:13:32;10.40;1.00
9973;DHT22;5027;53.560;10.062;2023-04-03T02:15:59;10.40;1.00
9973;DHT22;5027;53.560;10.062;2023-04-03T02:18:31;10.40;99.90
9973;DHT22;5027;53.560;10.062;2023-04-03T02:20:58;10.30;99.90
9973;DHT22;5027;53.560;10.062;2023-04-03T02:23:25;10.30;99.90
9973;DHT22;5027;53.560;10.062;2023-04-03T02:25:52;10.40;1.00
9973;DHT22;5027;53.560;10.062;2023-04-03T02:28:19;10.40;1.00
9973;DHT22;5027;53.560;10.062;2023-04-03T02:30:46;10.40;1.00
9973;DHT22;5027;53.560;10.062;2023-04-03T02:33:13;10.40;1.00
9973;DHT22;5027;53.560;10.062;2023-04-03T02:35:39;10.30;1.00
9973;DHT22;5027;53.560;10.062;2023-04-03T02:38:06;10.40;1.00
9973;DHT22;5027;53.560;10.062;2023-04-03T02:40:33;10.30;1.00
9973;DHT22;5027;53.560;10.062;2023-04-03T02:43:00;10.30;1.00
9973;DHT22;5027;53.560;10.062;2023-04-03T02:45:28;10.40;1.00
9973;DHT22;5027;53.560;10.062;2023-04-03T02:47:54;10.30;1.00
9973;DHT22;5027;53.560;10.062;2023-04-03T02:50:21;10.30;1.00
9973;DHT22;5027;53.560;10.062;2023-04-03T02:52:48;10.30;1.00
9973;DHT22;5027;53.560;10.062;2023-04-03T02:55:14;10.20;60.80
9973;DHT22;5027;53.560;10.062;2023-04-03T02:57:43;10.20;58.60
9973;DHT22;5027;53.560;10.062;2023-04-03T03:00:12;10.10;68.60
9973;DHT22;5027;53.560;10.062;2023-04-03T03:02:39;10.20;76.90
9973;DHT22;5027;53.560;10.062;2023-04-03T03:05:07;10.20;77.10
9973;DHT22;5027;53.560;10.062;2023-04-03T03:07:34;10.20;79.70
9973;DHT22;5027;53.560;10.062;2023-04-03T03:10:01;10.20;81.20
9973;DHT22;5027;53.560;10.062;2023-04-03T03:12:28;10.10;81.50
9973;DHT22;5027;53.560;10.062;2023-04-03T03:14:55;10.10;83.70
9973;DHT22;5027;53.560;10.062;2023-04-03T03:17:21;10.20;84.10
9973;DHT22;5027;53.560;10.062;2023-04-03T03:19:48;10.10;83.10
9973;DHT22;5027;53.560;10.062;2023-04-03T03:22:16;10.10;84.10
9973;DHT22;5027;53.560;10.062;2023-04-03T03:24:43;10.10;85.20
9973;DHT22;5027;53.560;10.062;2023-04-03T03:27:09;10.00;88.10
9973;DHT22;5027;53.560;10.062;2023-04-03T03:29:36;10.10;88.00
9973;DHT22;5027;53.560;10.062;2023-04-03T03:32:04;10.10;89.50
9973;DHT22;5027;53.560;10.062;2023-04-03T03:34:31;10.10;91.00
9973;DHT22;5027;53.560;10.062;2023-04-03T03:36:58;10.10;91.30
9973;DHT22;5027;53.560;10.062;2023-04-03T03:39:25;10.10;91.50
9973;DHT22;5027;53.560;10.062;2023-04-03T03:41:52;10.10;91.80
9973;DHT22;5027;53.560;10.062;2023-04-03T03:44:20;10.10;92.20
9973;DHT22;5027;53.560;10.062;2023-04-03T03:46:47;10.10;92.50
9973;DHT22;5027;53.560;10.062;2023-04-03T03:49:13;10.00;93.00
9973;DHT22;5027;53.560;10.062;2023-04-03T03:51:40;10.00;93.10
9973;DHT22;5027;53.560;10.062;2023-04-03T03:54:07;10.00;93.10
9973;DHT22;5027;53.560;10.062;2023-04-03T03:56:35;9.90;93.60
9973;DHT22;5027;53.560;10.062;2023-04-03T03:59:02;10.00;93.30
9973;DHT22;5027;53.560;10.062;2023-04-03T04:01:30;9.90;93.70
9973;DHT22;5027;53.560;10.062;2023-04-03T04:03:57;10.00;93.10
9973;DHT22;5027;53.560;10.062;2023-04-03T04:06:28;9.90;93.70
9973;DHT22;5027;53.560;10.062;2023-04-03T04:08:58;9.90;93.60
9973;DHT22;5027;53.560;10.062;2023-04-03T04:11:25;9.90;93.70
9973;DHT22;5027;53.560;10.062;2023-04-03T04:13:54;9.90;93.70
9973;DHT22;5027;53.560;10.062;2023-04-03T04:16:25;9.90;93.70
9973;DHT22;5027;53.560;10.062;2023-04-03T04:18:52;9.90;93.70
9973;DHT22;5027;53.560;10.062;2023-04-03T04:21:20;9.80;93.70
9973;DHT22;5027;53.560;10.062;2023-04-03T04:23:49;9.80;93.60
9973;DHT22;5027;53.560;10.062;2023-04-03T04:26:16;9.80;93.80
9973;DHT22;5027;53.560;10.062;2023-04-03T04:28:43;9.80;93.70
9973;DHT22;5027;53.560;10.062;2023-04-03T04:31:10;9.80;93.60
9973;DHT22;5027;53.560;10.062;2023-04-03T04:33:37;9.80;93.70
9973;DHT22;5027;53.560;10.062;2023-04-03T04:36:05;9.80;93.70
9973;DHT22;5027;53.560;10.062;2023-04-03T04:38:32;9.80;93.60
9973;DHT22;5027;53.560;10.062;2023-04-03T04:40:59;9.80;93.60
9973;DHT22;5027;53.560;10.062;2023-04-03T04:43:26;9.80;93.80
9973;DHT22;5027;53.560;10.062;2023-04-03T04:46:05;9.80;93.70
9973;DHT22;5027;53.560;10.062;2023-04-03T04:48:36;9.80;93.80
9973;DHT22;5027;53.560;10.062;2023-04-03T04:51:04;9.80;93.80
9973;DHT22;5027;53.560;10.062;2023-04-03T04:53:32;9.80;93.70
9973;DHT22;5027;53.560;10.062;2023-04-03T04:55:59;9.80;93.80
9973;DHT22;5027;53.560;10.062;2023-04-03T04:58:27;9.80;93.90
9973;DHT22;5027;53.560;10.062;2023-04-03T05:01:01;9.80;93.80
9973;DHT22;5027;53.560;10.062;2023-04-03T05:03:29;9.80;93.70
9973;DHT22;5027;53.560;10.062;2023-04-03T05:05:56;9.80;93.80
9973;DHT22;5027;53.560;10.062;2023-04-03T05:08:24;9.80;93.60
9973;DHT22;5027;53.560;10.062;2023-04-03T05:10:51;9.80;93.90
9973;DHT22;5027;53.560;10.062;2023-04-03T05:13:21;9.90;93.90
9973;DHT22;5027;53.560;10.062;2023-04-03T05:15:48;9.80;93.80
9973;DHT22;5027;53.560;10.062;2023-04-03T05:18:16;9.80;93.90
9973;DHT22;5027;53.560;10.062;2023-04-03T05:20:43;9.90;93.70
9973;DHT22;5027;53.560;10.062;2023-04-03T05:23:11;9.80;93.70
9973;DHT22;5027;53.560;10.062;2023-04-03T05:25:38;9.80;93.70
9973;DHT22;5027;53.560;10.062;2023-04-03T05:28:07;9.80;93.80
9973;DHT22;5027;53.560;10.062;2023-04-03T05:30:34;9.80;93.90
9973;DHT22;5027;53.560;10.062;2023-04-03T05:33:02;9.90;93.80
9973;DHT22;5027;53.560;10.062;2023-04-03T05:35:37;9.90;93.90
9973;DHT22;5027;53.560;10.062;2023-04-03T05:38:11;9.90;93.80
9973;DHT22;5027;53.560;10.062;2023-04-03T05:40:38;9.90;93.90
9973;DHT22;5027;53.560;10.062;2023-04-03T05:43:05;9.90;94.10
9973;DHT22;5027;53.560;10.062;2023-04-03T05:45:35;9.90;93.90
9973;DHT22;5027;53.560;10.062;2023-04-03T05:48:01;9.90;93.90
9973;DHT22;5027;53.560;10.062;2023-04-03T05:50:29;9.90;93.60
9973;DHT22;5027;53.560;10.062;2023-04-03T05:52:57;9.90;94.30
9973;DHT22;5027;53.560;10.062;2023-04-03T05:55:27;10.00;93.40
9973;DHT22;5027;53.560;10.062;2023-04-03T05:57:54;10.00;93.20
9973;DHT22;5027;53.560;10.062;2023-04-03T06:00:21;10.00;93.30
9973;DHT22;5027;53.560;10.062;2023-04-03T06:02:56;10.00;93.40
9973;DHT22;5027;53.560;10.062;2023-04-03T06:05:24;10.00;93.40
9973;DHT22;5027;53.560;10.062;2023-04-03T06:07:51;10.10;93.70
9973;DHT22;5027;53.560;10.062;2023-04-03T06:10:17;10.10;93.30
9973;DHT22;5027;53.560;10.062;2023-04-03T06:12:45;10.10;93.20
9973;DHT22;5027;53.560;10.062;2023-04-03T06:15:12;10.10;93.20
9973;DHT22;5027;53.560;10.062;2023-04-03T06:17:40;10.10;93.20
9973;DHT22;5027;53.560;10.062;2023-04-03T06:20:08;10.10;93.40
9973;DHT22;5027;53.560;10.062;2023-04-03T06:22:35;10.20;93.30
9973;DHT22;5027;53.560;10.062;2023-04-03T06:25:03;10.20;93.20
9973;DHT22;5027;53.560;10.062;2023-04-03T06:27:30;10.30;93.40
9973;DHT22;5027;53.560;10.062;2023-04-03T06:29:56;10.30;93.20
9973;DHT22;5027;53.560;10.062;2023-04-03T06:32:23;10.20;93.00
9973;DHT22;5027;53.560;10.062;2023-04-03T06:34:50;10.30;93.20
9973;DHT22;5027;53.560;10.062;2023-04-03T06:37:19;10.40;93.10
9973;DHT22;5027;53.560;10.062;2023-04-03T06:39:47;10.40;93.20
9973;DHT22;5027;53.560;10.062;2023-04-03T06:42:14;10.40;93.20
9973;DHT22;5027;53.560;10.062;2023-04-03T06:44:51;10.40;93.20
9973;DHT22;5027;53.560;10.062;2023-04-03T06:47:18;10.40;93.30
9973;DHT22;5027;53.560;10.062;2023-04-03T06:49:45;10.50;93.10
9973;DHT22;5027;53.560;10.062;2023-04-03T06:52:12;10.50;93.40
9973;DHT22;5027;53.560;10.062;2023-04-03T06:54:40;10.60;93.10
9973;DHT22;5027;53.560;10.062;2023-04-03T06:57:07;10.60;93.00
9973;DHT22;5027;53.560;10.062;2023-04-03T06:59:35;10.70;93.20
9973;DHT22;5027;53.560;10.062;2023-04-03T07:02:03;10.70;93.10
9973;DHT22;5027;53.560;10.062;2023-04-03T07:04:29;10.70;93.10
9973;DHT22;5027;53.560;10.062;2023-04-03T07:06:56;10.70;92.90
9973;DHT22;5027;53.560;10.062;2023-04-03T07:09:23;10.80;93.10
9973;DHT22;5027;53.560;10.062;2023-04-03T07:11:49;10.80;92.90
9973;DHT22;5027;53.560;10.062;2023-04-03T07:14:16;10.80;92.60
9973;DHT22;5027;53.560;10.062;2023-04-03T07:16:43;10.80;93.00
9973;DHT22;5027;53.560;10.062;2023-04-03T07:19:09;10.90;93.10
9973;DHT22;5027;53.560;10.062;2023-04-03T07:21:36;10.90;93.10
9973;DHT22;5027;53.560;10.062;2023-04-03T07:24:03;11.00;92.70
9973;DHT22;5027;53.560;10.062;2023-04-03T07:26:30;11.10;92.80
9973;DHT22;5027;53.560;10.062;2023-04-03T07:28:57;11.10;92.50
9973;DHT22;5027;53.560;10.062;2023-04-03T07:31:24;11.10;92.80
9973;DHT22;5027;53.560;10.062;2023-04-03T07:33:52;11.20;93.00
9973;DHT22;5027;53.560;10.062;2023-04-03T07:36:20;11.20;93.70
9973;DHT22;5027;53.560;10.062;2023-04-03T07:38:48;11.50;1.00
9973;DHT22;5027;53.560;10.062;2023-04-03T07:41:16;12.30;1.00
9973;DHT22;5027;53.560;10.062;2023-04-03T07:43:44;12.00;1.00
9973;DHT22;5027;53.560;10.062;2023-04-03T07:46:11;11.70;1.00
9973;DHT22;5027;53.560;10.062;2023-04-03T07:48:38;11.70;1.00
9973;DHT22;5027;53.560;10.062;2023-04-03T07:51:05;11.60;1.00
9973;DHT22;5027;53.560;10.062;2023-04-03T07:53:33;11.60;1.00
9973;DHT22;5027;53.560;10.062;2023-04-03T07:56:00;11.60;1.00
9973;DHT22;5027;53.560;10.062;2023-04-03T07:58:28;11.60;1.00
9973;DHT22;5027;53.560;10.062;2023-04-03T08:00:55;11.60;1.00
9973;DHT22;5027;53.560;10.062;2023-04-03T08:03:22;11.70;1.00
9973;DHT22;5027;53.560;10.062;2023-04-03T08:05:49;11.70;1.00
9973;DHT22;5027;53.560;10.062;2023-04-03T08:08:21;11.70;1.00
9973;DHT22;5027;53.560;10.062;2023-04-03T08:10:50;11.70;1.00
9973;DHT22;5027;53.560;10.062;2023-04-03T08:13:18;11.70;1.00
9973;DHT22;5027;53.560;10.062;2023-04-03T08:15:45;11.70;1.00
9973;DHT22;5027;53.560;10.062;2023-04-03T08:18:12;11.70;1.00
9973;DHT22;5027;53.560;10.062;2023-04-03T08:20:39;11.80;1.00
9973;DHT22;5027;53.560;10.062;2023-04-03T08:23:07;11.80;1.00
9973;DHT22;5027;53.560;10.062;2023-04-03T08:25:38;11.80;1.00
9973;DHT22;5027;53.560;10.062;2023-04-03T08:28:06;11.80;1.00
9973;DHT22;5027;53.560;10.062;2023-04-03T08:30:33;11.80;1.00
9973;DHT22;5027;53.560;10.062;2023-04-03T08:33:01;11.80;1.00
9973;DHT22;5027;53.560;10.062;2023-04-03T08:35:28;11.80;1.00
9973;DHT22;5027;53.560;10.062;2023-04-03T08:37:55;11.80;1.00
9973;DHT22;5027;53.560;10.062;2023-04-03T08:40:23;11.90;1.00
9973;DHT22;5027;53.560;10.062;2023-04-03T08:45:48;11.90;1.00
9973;DHT22;5027;53.560;10.062;2023-04-03T08:48:26;11.80;1.00
9973;DHT22;5027;53.560;10.062;2023-04-03T08:50:57;11.90;1.00
9973;DHT22;5027;53.560;10.062;2023-04-03T08:53:30;12.10;1.00
9973;DHT22;5027;53.560;10.062;2023-04-03T08:56:04;12.20;1.00
9973;DHT22;5027;53.560;10.062;2023-04-03T08:58:53;12.10;1.00
9973;DHT22;5027;53.560;10.062;2023-04-03T09:01:26;12.10;1.00
9973;DHT22;5027;53.560;10.062;2023-04-03T09:03:53;12.10;1.00
9973;DHT22;5027;53.560;10.062;2023-04-03T09:06:27;12.10;1.00
9973;DHT22;5027;53.560;10.062;2023-04-03T09:12:04;12.10;1.00
9973;DHT22;5027;53.560;10.062;2023-04-03T09:15:18;12.60;1.00
9973;DHT22;5027;53.560;10.062;2023-04-03T09:18:04;12.80;1.00
9973;DHT22;5027;53.560;10.062;2023-04-03T09:22:58;12.40;1.00
9973;DHT22;5027;53.560;10.062;2023-04-03T09:25:33;12.50;1.00
9973;DHT22;5027;53.560;10.062;2023-04-03T09:28:04;12.50;1.00
9973;DHT22;5027;53.560;10.062;2023-04-03T09:30:36;12.70;1.00
9973;DHT22;5027;53.560;10.062;2023-04-03T09:33:04;12.70;1.00
9973;DHT22;5027;53.560;10.062;2023-04-03T09:35:36;12.80;1.00
9973;DHT22;5027;53.560;10.062;2023-04-03T09:38:17;13.30;1.00
9973;DHT22;5027;53.560;10.062;2023-04-03T09:40:51;13.10;1.00
9973;DHT22;5027;53.560;10.062;2023-04-03T09:43:31;13.20;1.00
9973;DHT22;5027;53.560;10.062;2023-04-03T09:46:28;13.10;1.00
9973;DHT22;5027;53.560;10.062;2023-04-03T09:49:00;13.00;1.00
9973;DHT22;5027;53.560;10.062;2023-04-03T09:51:35;13.00;1.00
9973;DHT22;5027;53.560;10.062;2023-04-03T09:54:30;13.10;1.00
9973;DHT22;5027;53.560;10.062;2023-04-03T09:57:17;13.20;1.00
9973;DHT22;5027;53.560;10.062;2023-04-03T09:59:58;13.80;1.00
9973;DHT22;5027;53.560;10.062;2023-04-03T10:02:35;13.70;1.00
9973;DHT22;5027;53.560;10.062;2023-04-03T10:05:05;13.50;1.00
9973;DHT22;5027;53.560;10.062;2023-04-03T10:07:51;13.60;1.00
9973;DHT22;5027;53.560;10.062;2023-04-03T10:10:29;14.10;1.00
9973;DHT22;5027;53.560;10.062;2023-04-03T10:13:09;14.40;1.00
9973;DHT22;5027;53.560;10.062;2023-04-03T10:16:08;14.10;1.00
9973;DHT22;5027;53.560;10.062;2023-04-03T10:18:44;13.90;1.00
9973;DHT22;5027;53.560;10.062;2023-04-03T10:21:33;13.90;1.00
9973;DHT22;5027;53.560;10.062;2023-04-03T10:24:13;13.90;58.00
9973;DHT22;5027;53.560;10.062;2023-04-03T10:26:51;13.90;1.00
9973;DHT22;5027;53.560;10.062;2023-04-03T10:32:43;13.90;79.40
9973;DHT22;5027;53.560;10.062;2023-04-03T10:35:42;14.00;79.20
9973;DHT22;5027;53.560;10.062;2023-04-03T10:38:20;14.10;90.40
9973;DHT22;5027;53.560;10.062;2023-04-03T10:40:57;14.10;91.00
9973;DHT22;5027;53.560;10.062;2023-04-03T10:43:44;14.60;1.00
9973;DHT22;5027;53.560;10.062;2023-04-03T10:46:15;14.80;1.00
9973;DHT22;5027;53.560;10.062;2023-04-03T10:51:25;14.20;99.90
9973;DHT22;5027;53.560;10.062;2023-04-03T10:54:13;14.10;1.00
9973;DHT22;5027;53.560;10.062;2023-04-03T10:56:48;14.20;1.00
9973;DHT22;5027;53.560;10.062;2023-04-03T10:59:38;14.10;52.20
9973;DHT22;5027;53.560;10.062;2023-04-03T11:03:12;14.10;86.40
9973;DHT22;5027;53.560;10.062;2023-04-03T11:05:45;14.40;90.10
9973;DHT22;5027;53.560;10.062;2023-04-03T11:08:41;14.10;81.00
9973;DHT22;5027;53.560;10.062;2023-04-03T11:11:13;13.90;81.10
9973;DHT22;5027;53.560;10.062;2023-04-03T11:16:26;14.20;89.10
9973;DHT22;5027;53.560;10.062;2023-04-03T11:19:08;14.20;90.70
9973;DHT22;5027;53.560;10.062;2023-04-03T11:21:46;14.20;81.60
9973;DHT22;5027;53.560;10.062;2023-04-03T11:24:20;14.50;99.70
9973;DHT22;5027;53.560;10.062;2023-04-03T11:26:50;14.50;90.60
9973;DHT22;5027;53.560;10.062;2023-04-03T11:29:22;14.40;89.40
9973;DHT22;5027;53.560;10.062;2023-04-03T11:32:16;14.20;82.60
9973;DHT22;5027;53.560;10.062;2023-04-03T11:34:49;14.20;83.70
9973;DHT22;5027;53.560;10.062;2023-04-03T11:37:38;14.30;82.50
9973;DHT22;5027;53.560;10.062;2023-04-03T11:40:19;14.30;83.60
9973;DHT22;5027;53.560;10.062;2023-04-03T11:42:49;14.40;81.50
9973;DHT22;5027;53.560;10.062;2023-04-03T11:45:25;14.40;81.10
9973;DHT22;5027;53.560;10.062;2023-04-03T11:50:40;14.40;82.20
9973;DHT22;5027;53.560;10.062;2023-04-03T11:55:59;14.20;82.20
9973;DHT22;5027;53.560;10.062;2023-04-03T11:58:34;14.70;98.40
9973;DHT22;5027;53.560;10.062;2023-04-03T12:01:11;14.60;93.60
9973;DHT22;5027;53.560;10.062;2023-04-03T12:04:07;14.30;86.30
9973;DHT22;5027;53.560;10.062;2023-04-03T12:09:02;14.10;83.10
9973;DHT22;5027;53.560;10.062;2023-04-03T12:11:43;14.00;79.80
9973;DHT22;5027;53.560;10.062;2023-04-03T12:14:14;13.90;1.00
9973;DHT22;5027;53.560;10.062;2023-04-03T12:16:45;13.90;1.00
9973;DHT22;5027;53.560;10.062;2023-04-03T12:27:02;14.20;1.00
9973;DHT22;5027;53.560;10.062;2023-04-03T12:43:58;15.00;98.10
9973;DHT22;5027;53.560;10.062;2023-04-03T12:46:35;14.80;81.90
9973;DHT22;5027;53.560;10.062;2023-04-03T12:51:58;14.70;86.30
9973;DHT22;5027;53.560;10.062;2023-04-03T12:54:35;14.80;90.70
9973;DHT22;5027;53.560;10.062;2023-04-03T12:59:37;14.80;79.10
9973;DHT22;5027;53.560;10.062;2023-04-03T13:02:21;14.70;85.90
9973;DHT22;5027;53.560;10.062;2023-04-03T13:04:51;14.70;79.10
9973;DHT22;5027;53.560;10.062;2023-04-03T13:07:21;14.80;78.90
9973;DHT22;5027;53.560;10.062;2023-04-03T13:13:19;14.90;78.50
9973;DHT22;5027;53.560;10.062;2023-04-03T13:15:23;15.00;77.70
9973;DHT22;5027;53.560;10.062;2023-04-03T13:17:52;14.90;87.80
9973;DHT22;5027;53.560;10.062;2023-04-03T13:20:24;15.10;94.80
9973;DHT22;5027;53.560;10.062;2023-04-03T13:22:53;15.40;99.90
9973;DHT22;5027;53.560;10.062;2023-04-03T13:25:22;15.20;94.20
9973;DHT22;5027;53.560;10.062;2023-04-03T13:27:49;15.20;98.60
9973;DHT22;5027;53.560;10.062;2023-04-03T13:32:52;15.00;99.00
9973;DHT22;5027;53.560;10.062;2023-04-03T13:37:57;15.00;82.70
9973;DHT22;5027;53.560;10.062;2023-04-03T13:40:24;15.10;91.70
9973;DHT22;5027;53.560;10.062;2023-04-03T13:43:16;15.00;92.90
9973;DHT22;5027;53.560;10.062;2023-04-03T13:45:58;14.90;88.80
9973;DHT22;5027;53.560;10.062;2023-04-03T13:48:26;15.00;86.90
9973;DHT22;5027;53.560;10.062;2023-04-03T13:50:56;15.10;80.80
9973;DHT22;5027;53.560;10.062;2023-04-03T13:53:23;15.10;89.00
9973;DHT22;5027;53.560;10.062;2023-04-03T13:58:34;15.10;78.70
9973;DHT22;5027;53.560;10.062;2023-04-03T14:01:17;15.10;82.00
9973;DHT22;5027;53.560;10.062;2023-04-03T14:04:18;15.30;86.80
9973;DHT22;5027;53.560;10.062;2023-04-03T14:06:46;15.20;79.50
9973;DHT22;5027;53.560;10.062;2023-04-03T14:09:13;15.20;77.80
9973;DHT22;5027;53.560;10.062;2023-04-03T14:11:41;15.20;83.30
9973;DHT22;5027;53.560;10.062;2023-04-03T14:14:15;15.30;80.50
9973;DHT22;5027;53.560;10.062;2023-04-03T14:16:47;15.30;75.40
9973;DHT22;5027;53.560;10.062;2023-04-03T14:19:26;15.40;76.60
9973;DHT22;5027;53.560;10.062;2023-04-03T14:21:54;15.40;81.00
9973;DHT22;5027;53.560;10.062;2023-04-03T14:24:22;15.30;77.70
9973;DHT22;5027;53.560;10.062;2023-04-03T14:26:51;15.30;75.10
9973;DHT22;5027;53.560;10.062;2023-04-03T14:29:19;15.20;73.60
9973;DHT22;5027;53.560;10.062;2023-04-03T14:31:48;15.20;74.70
9973;DHT22;5027;53.560;10.062;2023-04-03T14:34:17;15.30;88.50
9973;DHT22;5027;53.560;10.062;2023-04-03T14:36:44;15.20;79.10
9973;DHT22;5027;53.560;10.062;2023-04-03T14:39:17;15.30;75.70
9973;DHT22;5027;53.560;10.062;2023-04-03T14:41:45;15.40;72.30
9973;DHT22;5027;53.560;10.062;2023-04-03T14:44:12;15.50;70.60
9973;DHT22;5027;53.560;10.062;2023-04-03T14:46:43;15.50;85.80
9973;DHT22;5027;53.560;10.062;2023-04-03T14:49:26;15.40;92.20
9973;DHT22;5027;53.560;10.062;2023-04-03T14:51:55;15.40;84.70
9973;DHT22;5027;53.560;10.062;2023-04-03T14:54:23;15.40;73.40
9973;DHT22;5027;53.560;10.062;2023-04-03T14:56:56;15.50;74.30
9973;DHT22;5027;53.560;10.062;2023-04-03T14:59:23;15.40;73.10
9973;DHT22;5027;53.560;10.062;2023-04-03T15:01:50;15.40;76.30
9973;DHT22;5027;53.560;10.062;2023-04-03T15:04:19;15.40;73.30
9973;DHT22;5027;53.560;10.062;2023-04-03T15:06:48;15.40;75.20
9973;DHT22;5027;53.560;10.062;2023-04-03T15:09:25;15.30;72.80
9973;DHT22;5027;53.560;10.062;2023-04-03T15:11:54;15.40;75.60
9973;DHT22;5027;53.560;10.062;2023-04-03T15:14:22;15.50;73.80
9973;DHT22;5027;53.560;10.062;2023-04-03T15:17:08;15.60;91.90
9973;DHT22;5027;53.560;10.062;2023-04-03T15:19:40;15.60;77.60
9973;DHT22;5027;53.560;10.062;2023-04-03T15:22:08;15.50;86.20
9973;DHT22;5027;53.560;10.062;2023-04-03T15:24:35;15.50;76.00
9973;DHT22;5027;53.560;10.062;2023-04-03T15:27:01;15.50;79.50
9973;DHT22;5027;53.560;10.062;2023-04-03T15:29:28;15.40;76.70
9973;DHT22;5027;53.560;10.062;2023-04-03T15:31:55;15.50;75.30
9973;DHT22;5027;53.560;10.062;2023-04-03T15:34:22;15.50;75.00
9973;DHT22;5027;53.560;10.062;2023-04-03T15:36:50;15.40;82.80
9973;DHT22;5027;53.560;10.062;2023-04-03T15:39:19;15.50;86.10
9973;DHT22;5027;53.560;10.062;2023-04-03T15:41:47;15.40;81.40
9973;DHT22;5027;53.560;10.062;2023-04-03T15:44:13;15.40;75.20
9973;DHT22;5027;53.560;10.062;2023-04-03T15:46:45;15.30;74.70
9973;DHT22;5027;53.560;10.062;2023-04-03T15:49:12;15.30;73.50
9973;DHT22;5027;53.560;10.062;2023-04-03T15:51:40;15.20;73.50
9973;DHT22;5027;53.560;10.062;2023-04-03T15:54:06;15.20;73.70
9973;DHT22;5027;53.560;10.062;2023-04-03T15:56:33;15.20;73.60
9973;DHT22;5027;53.560;10.062;2023-04-03T15:59:00;15.20;85.70
9973;DHT22;5027;53.560;10.062;2023-04-03T16:01:27;15.20;75.30
9973;DHT22;5027;53.560;10.062;2023-04-03T16:03:53;15.20;74.80
9973;DHT22;5027;53.560;10.062;2023-04-03T16:06:20;15.10;1.00
9973;DHT22;5027;53.560;10.062;2023-04-03T16:08:47;15.10;1.00
9973;DHT22;5027;53.560;10.062;2023-04-03T16:11:15;15.10;1.00
9973;DHT22;5027;53.560;10.062;2023-04-03T16:13:41;15.00;1.00
9973;DHT22;5027;53.560;10.062;2023-04-03T16:16:09;15.00;1.00
9973;DHT22;5027;53.560;10.062;2023-04-03T16:18:36;14.90;1.00
9973;DHT22;5027;53.560;10.062;2023-04-03T16:21:03;15.00;1.00
9973;DHT22;5027;53.560;10.062;2023-04-03T16:23:30;15.00;1.00
9973;DHT22;5027;53.560;10.062;2023-04-03T16:25:56;14.90;1.00
9973;DHT22;5027;53.560;10.062;2023-04-03T16:28:23;14.90;1.00
9973;DHT22;5027;53.560;10.062;2023-04-03T16:30:50;14.90;1.00
9973;DHT22;5027;53.560;10.062;2023-04-03T16:33:17;14.80;1.00
9973;DHT22;5027;53.560;10.062;2023-04-03T16:35:48;15.00;1.00
9973;DHT22;5027;53.560;10.062;2023-04-03T16:38:15;14.90;1.00
9973;DHT22;5027;53.560;10.062;2023-04-03T16:40:42;14.90;1.00
9973;DHT22;5027;53.560;10.062;2023-04-03T16:43:09;14.80;1.00
9973;DHT22;5027;53.560;10.062;2023-04-03T16:45:37;14.80;1.00
9973;DHT22;5027;53.560;10.062;2023-04-03T16:48:04;14.70;1.00
9973;DHT22;5027;53.560;10.062;2023-04-03T16:50:32;14.70;1.00
9973;DHT22;5027;53.560;10.062;2023-04-03T16:52:59;14.70;1.00
9973;DHT22;5027;53.560;10.062;2023-04-03T16:55:25;14.60;1.00
9973;DHT22;5027;53.560;10.062;2023-04-03T16:57:52;14.60;1.00
9973;DHT22;5027;53.560;10.062;2023-04-03T17:00:21;14.60;1.00
9973;DHT22;5027;53.560;10.062;2023-04-03T17:02:48;14.60;1.00
9973;DHT22;5027;53.560;10.062;2023-04-03T17:05:15;14.60;1.00
9973;DHT22;5027;53.560;10.062;2023-04-03T17:07:41;14.50;1.00
9973;DHT22;5027;53.560;10.062;2023-04-03T17:10:08;14.60;1.00
9973;DHT22;5027;53.560;10.062;2023-04-03T17:12:35;14.50;1.00
9973;DHT22;5027;53.560;10.062;2023-04-03T17:15:02;14.50;1.00
9973;DHT22;5027;53.560;10.062;2023-04-03T17:17:29;14.50;1.00
9973;DHT22;5027;53.560;10.062;2023-04-03T17:19:57;14.40;1.00
9973;DHT22;5027;53.560;10.062;2023-04-03T17:22:24;14.40;1.00
9973;DHT22;5027;53.560;10.062;2023-04-03T17:24:51;14.50;1.00